Stevens Point, WI (54481)

3:08 PM CDT on July 06, 2015 (GMT -0500)
APRSWXNET | | Change Station
CLOSE
Current Station
Personal Weather Station
Location: Stevens Point, WI
Elevation: 1082 ft
Nearby Weather Stations

Elev 1082 ft 44.50 °N, 89.56 °W | Updated 25 minutes ago

Overcast
Overcast
82 °F
Feels Like 85 °F
N
0
Wind Variable Wind from South
Gusts 1.0 mph

Today
High -- | Low -- °F
--% Chance of Precip.
Yesterday
High -- | Low -- °F
Precip. -- in
5:20 AM 8:45 PM
Waning Gibbous, 72% visible
Pressure 29.81 in
Visibility 10.0 miles
Clouds Scattered Clouds 2100 ft
Mostly Cloudy 3000 ft
Overcast 5000 ft
Heat Index 85 °F
Dew Point 69 °F
Humidity 65%
Rainfall in
Snow Depth Not available.
UV 3 out of 12
Pollen .60 out of 12
Air Quality Not available.
Flu Activity Not available.
METAR KSTE 061955Z AUTO 22004KT 10SM -RA SCT021 BKN030 OVC050 24/20 A2981 RMK AO2 T02400198

More Conditions Fewer Conditions

Pressure 29.81 in
Visibility 10.0 miles
Clouds Scattered Clouds 2100 ft
Mostly Cloudy 3000 ft
Overcast 5000 ft
Heat Index 85 °F
Dew Point 69 °F
Humidity 65%
Rainfall in
Snow Depth Not available.
UV 3 out of 12
Pollen .60 out of 12
Air Quality Not available.
Flu Activity Not available.
METAR KSTE 061955Z AUTO 22004KT 10SM -RA SCT021 BKN030 OVC050 24/20 A2981 RMK AO2 T02400198

More Conditions Fewer Conditions

10-Day Weather Forecast

×

Almanac

Astronomy

Jul. 06, 2015 Rise Set
Actual Time
Civil Twilight
Nautical Twilight
Astronomical Twilight
Moon
Length of Visible Light
Length of Day
Tomorrow will be .
, % of the Moon is Illuminated

Today's Extremes

State Highs State Lows

Community

WunderPhotos

Upload Photos

1,835,625 photos uploaded!

WunderBlogs® & News

Nearby

Air Quality

  Air Quality AQ Index Pollutant
Not available.

Snow Depth

Station Depth Elevation

Earthquake Activity

City Distance Mag. Time & Date
Minimum magnitude displayed is 2.5.

Coastal Water Temperatures

Place Temperature

Stations

Nearby Weather Stations

Station Location Temp. Windchill Dew Point Humidity Wind Precip. Elev Updated Type